Ocean Ambition — VRNM9 — position and weather

sailwx.info

Track history (hours):
 
Tides and Currents Weather Stations Pressure Air Temp Water Temp Dewpoint Dewpoint Depression Visibility Wind Speed Wind Dir Waves Ship Positions

Ocean Ambition

Last reported at 2018-Jan-20 01:25 UTC. Time now 2018-Jan-20 01:38 UTC.
Position N 53°27' E 006°51'.

Length 229 m; draft 13 m.

Type: Cargo ship. MMSI: 477698200.

Date/timePositionNaut miles runAvg speedWind from/ knotsBaromVisibWave heightAir tempDewpointWater temp
2018-Jan-20 01:25N 53°27' E 006°51'0 0.0
2018-Jan-20 00:58N 53°27' E 006°51'0 0.0
2018-Jan-20 00:28N 53°27' E 006°51'0 0.0
2018-Jan-19 23:58N 53°27' E 006°51'0 0.0
2018-Jan-19 23:28N 53°27' E 006°51'0 0.0
2018-Jan-19 22:58N 53°27' E 006°51'0 0.0
2018-Jan-19 22:28N 53°27' E 006°51'0 0.0
2018-Jan-19 21:58N 53°27' E 006°51'0 0.0
2018-Jan-19 21:28N 53°27' E 006°51'0 0.0
2018-Jan-19 20:58N 53°27' E 006°51'0 0.0
2018-Jan-19 20:28N 53°27' E 006°51'0 0.0
2018-Jan-19 19:58N 53°27' E 006°51'0 0.0
2018-Jan-19 19:28N 53°27' E 006°51'0 0.0
2018-Jan-19 18:58N 53°27' E 006°51'0 0.0
2018-Jan-19 18:28N 53°27' E 006°51'0 0.0
2018-Jan-19 17:58N 53°27' E 006°51'0 0.0
2018-Jan-19 17:28N 53°27' E 006°51'0 0.0
2018-Jan-19 16:58N 53°27' E 006°51'0 0.0
2018-Jan-19 16:28N 53°27' E 006°51'0 0.0
2018-Jan-19 15:58N 53°27' E 006°51'0 0.0
2018-Jan-19 15:28N 53°27' E 006°51'0 0.0
2018-Jan-19 14:58N 53°27' E 006°51'0 0.0
2018-Jan-19 14:28N 53°27' E 006°51'0 0.0
2018-Jan-19 13:58N 53°27' E 006°51'0 0.0
2018-Jan-19 13:28N 53°27' E 006°51'0 0.0
2018-Jan-19 12:58N 53°27' E 006°51'0 0.0
2018-Jan-19 12:30N 53°27' E 006°51'1 1.3
2018-Jan-19 12:00N 53°27' E 006°50'2 4.5
2018-Jan-19 11:30N 53°29' E 006°49'4 8.5
2018-Jan-19 11:00N 53°32' E 006°44'510.7
2018-Jan-19 10:30N 53°35' E 006°37'510.1
2018-Jan-19 10:00N 53°37' E 006°29'710.2
2018-Jan-19 09:22N 53°38' E 006°18'1 1.0
2018-Jan-19 08:34N 53°38' E 006°17'  
2018-Jan-14 12:00N 52°24' E 004°00'3 0.1 100 / 151022.8 5.4 6.0 3.6 1.0
2018-Jan-12 14:46N 52°27' E 004°01'0 0.1
2018-Jan-12 14:19N 52°27' E 004°01'0 0.0
2018-Jan-12 13:55N 52°27' E 004°01'0 0.0
2018-Jan-12 13:25N 52°27' E 004°01'0 0.0
2018-Jan-12 12:55N 52°27' E 004°01'0 0.1
2018-Jan-12 12:28N 52°27' E 004°01'0 0.0
2018-Jan-12 11:49N 52°27' E 004°01'0 0.0
2018-Jan-12 11:28N 52°27' E 004°01'0 0.0
2018-Jan-12 10:58N 52°27' E 004°01'0 0.0
2018-Jan-12 10:28N 52°27' E 004°00'0 0.0
2018-Jan-12 09:52N 52°27' E 004°00'0 0.3
2018-Jan-12 09:28N 52°27' E 004°00'0 0.3
2018-Jan-12 08:58N 52°26' E 004°00'0 0.0
2018-Jan-12 08:28N 52°26' E 004°00'0 0.0
2018-Jan-12 07:58N 52°26' E 004°00'0 0.0
2018-Jan-12 07:28N 52°26' E 004°00'0 0.0
2018-Jan-12 06:58N 52°26' E 004°00'0 0.0
2018-Jan-12 06:28N 52°26' E 004°00'0 0.0
2018-Jan-12 05:58N 52°26' E 004°00'0 0.0
2018-Jan-12 05:28N 52°26' E 004°00'0 0.0
2018-Jan-12 04:58N 52°26' E 004°00'0 0.1
2018-Jan-12 04:28N 52°26' E 004°00'0 0.0
2018-Jan-12 03:58N 52°26' E 004°00'0 0.0
2018-Jan-12 03:28N 52°26' E 004°00'0 0.1
2018-Jan-12 02:58N 52°26' E 004°01'0 0.2
2018-Jan-12 02:25N 52°27' E 004°01'0 0.1
2018-Jan-12 01:55N 52°27' E 004°01'0 0.1
2018-Jan-12 01:28N 52°27' E 004°01'0 0.0
2018-Jan-12 00:58N 52°27' E 004°00'0 0.0
2018-Jan-12 00:16N 52°27' E 004°01'0 0.1
2018-Jan-11 23:58N 52°27' E 004°01'0 0.0
2018-Jan-11 23:28N 52°27' E 004°01'0 0.0
2018-Jan-11 22:55N 52°27' E 004°01'0 0.1
2018-Jan-11 22:28N 52°27' E 004°00'0 0.1
2018-Jan-11 21:49N 52°27' E 004°01'0 0.1
2018-Jan-11 21:28N 52°27' E 004°01'0 0.3
2018-Jan-11 20:58N 52°27' E 004°01'0 0.2
2018-Jan-11 20:28N 52°26' E 004°00'0 0.1
2018-Jan-11 19:58N 52°26' E 004°00'0 0.0
2018-Jan-11 19:28N 52°26' E 004°00'0 0.0
2018-Jan-11 18:55N 52°26' E 004°00'0 0.0
2018-Jan-11 18:25N 52°26' E 004°00'0 0.0
2018-Jan-11 17:55N 52°26' E 004°00'0 0.0
2018-Jan-11 17:28N 52°26' E 004°00'0 0.0
2018-Jan-11 16:58N 52°26' E 004°00'0 0.0
2018-Jan-11 16:28N 52°26' E 004°00'0 0.0
2018-Jan-11 15:58N 52°26' E 004°00'0 0.1
2018-Jan-11 15:25N 52°26' E 004°00'0 0.1
2018-Jan-11 14:58N 52°26' E 004°01'0 0.1
2018-Jan-11 14:28N 52°27' E 004°01'0 0.2
2018-Jan-11 13:55N 52°27' E 004°01'0 0.1
2018-Jan-11 13:19N 52°27' E 004°01'0 0.0
2018-Jan-11 12:58N 52°27' E 004°01'0 0.0
2018-Jan-11 12:28N 52°27' E 004°00'0 0.0
2018-Jan-11 11:58N 52°27' E 004°00'0 0.0
2018-Jan-11 11:19N 52°27' E 004°00'0 0.0
2018-Jan-11 10:58N 52°27' E 004°00'0 0.4
2018-Jan-11 10:30N 52°27' E 004°00'1 2.6
2018-Jan-11 10:00N 52°27' E 003°58'4 8.4
2018-Jan-11 09:30N 52°29' E 003°52'6 6.8
2018-Jan-11 08:36N 52°35' E 003°55'3 9.3
2018-Jan-11 08:16N 52°37' E 003°57'310.8
2018-Jan-11 08:00N 52°40' E 003°57'16511.8
2018-Jan-10 18:00N 55°12' E 005°48'74 9.8 140 / 181012.8 5.4 8.0 5.8 7.0
2018-Jan-10 10:26N 56°16' E 006°56'510.2
2018-Jan-10 09:59N 56°20' E 006°59'510.0
2018-Jan-10 09:30N 56°25' E 007°02'510.0
2018-Jan-10 09:00N 56°29' E 007°05'  
Track history (hours):
 
Tides and Currents Weather Stations Pressure Air Temp Water Temp Dewpoint Dewpoint Depression Visibility Wind Speed Wind Dir Waves Ship Positions

Ocean Ambition

Last reported at 2018-Jan-20 01:25 UTC. Time now 2018-Jan-20 01:38 UTC.
Position N 53°27' E 006°51'.

Length 229 m; draft 13 m.

Type: Cargo ship. MMSI: 477698200.

Date/timePositionNaut miles runAvg speedWind from/ knotsBaromVisibWave heightAir tempDewpointWater temp
2018-Jan-20 01:25N 53°27' E 006°51'0 0.0
2018-Jan-20 00:58N 53°27' E 006°51'0 0.0
2018-Jan-20 00:28N 53°27' E 006°51'0 0.0
2018-Jan-19 23:58N 53°27' E 006°51'0 0.0
2018-Jan-19 23:28N 53°27' E 006°51'0 0.0
2018-Jan-19 22:58N 53°27' E 006°51'0 0.0
2018-Jan-19 22:28N 53°27' E 006°51'0 0.0
2018-Jan-19 21:58N 53°27' E 006°51'0 0.0
2018-Jan-19 21:28N 53°27' E 006°51'0 0.0
2018-Jan-19 20:58N 53°27' E 006°51'0 0.0
2018-Jan-19 20:28N 53°27' E 006°51'0 0.0
2018-Jan-19 19:58N 53°27' E 006°51'0 0.0
2018-Jan-19 19:28N 53°27' E 006°51'0 0.0
2018-Jan-19 18:58N 53°27' E 006°51'0 0.0
2018-Jan-19 18:28N 53°27' E 006°51'0 0.0
2018-Jan-19 17:58N 53°27' E 006°51'0 0.0
2018-Jan-19 17:28N 53°27' E 006°51'0 0.0
2018-Jan-19 16:58N 53°27' E 006°51'0 0.0
2018-Jan-19 16:28N 53°27' E 006°51'0 0.0
2018-Jan-19 15:58N 53°27' E 006°51'0 0.0
2018-Jan-19 15:28N 53°27' E 006°51'0 0.0
2018-Jan-19 14:58N 53°27' E 006°51'0 0.0
2018-Jan-19 14:28N 53°27' E 006°51'0 0.0
2018-Jan-19 13:58N 53°27' E 006°51'0 0.0
2018-Jan-19 13:28N 53°27' E 006°51'0 0.0
2018-Jan-19 12:58N 53°27' E 006°51'0 0.0
2018-Jan-19 12:30N 53°27' E 006°51'1 1.3
2018-Jan-19 12:00N 53°27' E 006°50'2 4.5
2018-Jan-19 11:30N 53°29' E 006°49'4 8.5
2018-Jan-19 11:00N 53°32' E 006°44'510.7
2018-Jan-19 10:30N 53°35' E 006°37'510.1
2018-Jan-19 10:00N 53°37' E 006°29'710.2
2018-Jan-19 09:22N 53°38' E 006°18'1 1.0
2018-Jan-19 08:34N 53°38' E 006°17'  
2018-Jan-14 12:00N 52°24' E 004°00'3 0.1 100 / 151022.8 5.4 6.0 3.6 1.0
2018-Jan-12 14:46N 52°27' E 004°01'0 0.1
2018-Jan-12 14:19N 52°27' E 004°01'0 0.0
2018-Jan-12 13:55N 52°27' E 004°01'0 0.0
2018-Jan-12 13:25N 52°27' E 004°01'0 0.0
2018-Jan-12 12:55N 52°27' E 004°01'0 0.1
2018-Jan-12 12:28N 52°27' E 004°01'0 0.0
2018-Jan-12 11:49N 52°27' E 004°01'0 0.0
2018-Jan-12 11:28N 52°27' E 004°01'0 0.0
2018-Jan-12 10:58N 52°27' E 004°01'0 0.0
2018-Jan-12 10:28N 52°27' E 004°00'0 0.0
2018-Jan-12 09:52N 52°27' E 004°00'0 0.3
2018-Jan-12 09:28N 52°27' E 004°00'0 0.3
2018-Jan-12 08:58N 52°26' E 004°00'0 0.0
2018-Jan-12 08:28N 52°26' E 004°00'0 0.0
2018-Jan-12 07:58N 52°26' E 004°00'0 0.0
2018-Jan-12 07:28N 52°26' E 004°00'0 0.0
2018-Jan-12 06:58N 52°26' E 004°00'0 0.0
2018-Jan-12 06:28N 52°26' E 004°00'0 0.0
2018-Jan-12 05:58N 52°26' E 004°00'0 0.0
2018-Jan-12 05:28N 52°26' E 004°00'0 0.0
2018-Jan-12 04:58N 52°26' E 004°00'0 0.1
2018-Jan-12 04:28N 52°26' E 004°00'0 0.0
2018-Jan-12 03:58N 52°26' E 004°00'0 0.0
2018-Jan-12 03:28N 52°26' E 004°00'0 0.1
2018-Jan-12 02:58N 52°26' E 004°01'0 0.2
2018-Jan-12 02:25N 52°27' E 004°01'0 0.1
2018-Jan-12 01:55N 52°27' E 004°01'0 0.1
2018-Jan-12 01:28N 52°27' E 004°01'0 0.0
2018-Jan-12 00:58N 52°27' E 004°00'0 0.0
2018-Jan-12 00:16N 52°27' E 004°01'0 0.1
2018-Jan-11 23:58N 52°27' E 004°01'0 0.0
2018-Jan-11 23:28N 52°27' E 004°01'0 0.0
2018-Jan-11 22:55N 52°27' E 004°01'0 0.1
2018-Jan-11 22:28N 52°27' E 004°00'0 0.1
2018-Jan-11 21:49N 52°27' E 004°01'0 0.1
2018-Jan-11 21:28N 52°27' E 004°01'0 0.3
2018-Jan-11 20:58N 52°27' E 004°01'0 0.2
2018-Jan-11 20:28N 52°26' E 004°00'0 0.1
2018-Jan-11 19:58N 52°26' E 004°00'0 0.0
2018-Jan-11 19:28N 52°26' E 004°00'0 0.0
2018-Jan-11 18:55N 52°26' E 004°00'0 0.0
2018-Jan-11 18:25N 52°26' E 004°00'0 0.0
2018-Jan-11 17:55N 52°26' E 004°00'0 0.0
2018-Jan-11 17:28N 52°26' E 004°00'0 0.0
2018-Jan-11 16:58N 52°26' E 004°00'0 0.0
2018-Jan-11 16:28N 52°26' E 004°00'0 0.0
2018-Jan-11 15:58N 52°26' E 004°00'0 0.1
2018-Jan-11 15:25N 52°26' E 004°00'0 0.1
2018-Jan-11 14:58N 52°26' E 004°01'0 0.1
2018-Jan-11 14:28N 52°27' E 004°01'0 0.2
2018-Jan-11 13:55N 52°27' E 004°01'0 0.1
2018-Jan-11 13:19N 52°27' E 004°01'0 0.0
2018-Jan-11 12:58N 52°27' E 004°01'0 0.0
2018-Jan-11 12:28N 52°27' E 004°00'0 0.0
2018-Jan-11 11:58N 52°27' E 004°00'0 0.0
2018-Jan-11 11:19N 52°27' E 004°00'0 0.0
2018-Jan-11 10:58N 52°27' E 004°00'0 0.4
2018-Jan-11 10:30N 52°27' E 004°00'1 2.6
2018-Jan-11 10:00N 52°27' E 003°58'4 8.4
2018-Jan-11 09:30N 52°29' E 003°52'6 6.8
2018-Jan-11 08:36N 52°35' E 003°55'3 9.3
2018-Jan-11 08:16N 52°37' E 003°57'310.8
2018-Jan-11 08:00N 52°40' E 003°57'16511.8
2018-Jan-10 18:00N 55°12' E 005°48'74 9.8 140 / 181012.8 5.4 8.0 5.8 7.0
2018-Jan-10 10:26N 56°16' E 006°56'510.2
2018-Jan-10 09:59N 56°20' E 006°59'510.0
2018-Jan-10 09:30N 56°25' E 007°02'510.0
2018-Jan-10 09:00N 56°29' E 007°05'  

Dump ship's entire track history